createdAt,value
2022-10-05T00:00:01.387Z,13.79
2022-10-05T00:01:01.380Z,13.84
2022-10-05T00:02:01.446Z,13.79
2022-10-05T00:03:01.348Z,13.80
2022-10-05T00:04:01.407Z,13.79
2022-10-05T00:05:01.443Z,13.84
2022-10-05T00:06:01.346Z,13.76
2022-10-05T00:07:01.308Z,13.77
2022-10-05T00:08:01.295Z,13.79
2022-10-05T00:09:01.284Z,13.70
2022-10-05T00:10:01.297Z,13.77
2022-10-05T00:11:01.295Z,13.70
2022-10-05T00:12:01.256Z,13.76
2022-10-05T00:13:01.243Z,13.67
2022-10-05T00:14:01.236Z,13.65
2022-10-05T00:15:01.241Z,13.70
2022-10-05T00:16:01.351Z,13.65
2022-10-05T00:17:01.233Z,13.62
2022-10-05T00:18:01.190Z,13.62
2022-10-05T00:19:01.176Z,13.63
2022-10-05T00:20:01.169Z,13.62
2022-10-05T00:21:01.169Z,13.69
2022-10-05T00:22:01.143Z,13.62
2022-10-05T00:23:01.133Z,13.69
2022-10-05T00:24:01.120Z,13.62
2022-10-05T00:25:01.117Z,13.67
2022-10-05T00:26:01.120Z,13.65
2022-10-05T00:27:01.118Z,13.65
2022-10-05T00:28:15.894Z,13.62
2022-10-05T00:29:01.089Z,13.55
2022-10-05T00:30:01.060Z,13.59
2022-10-05T00:31:08.094Z,13.55
2022-10-05T00:32:01.118Z,13.55
2022-10-05T00:33:01.038Z,13.56
2022-10-05T00:34:01.010Z,13.54
2022-10-05T00:35:01.002Z,13.59
2022-10-05T00:36:00.989Z,13.54
2022-10-05T00:37:00.999Z,13.55
2022-10-05T00:38:00.969Z,13.55
2022-10-05T00:39:00.957Z,13.61
2022-10-05T00:40:00.944Z,13.54
2022-10-05T00:41:00.936Z,13.54
2022-10-05T00:42:00.937Z,13.56
2022-10-05T00:43:00.930Z,13.54
2022-10-05T00:44:00.901Z,13.59
2022-10-05T00:45:00.894Z,13.56
2022-10-05T00:46:00.943Z,13.56
2022-10-05T00:47:00.880Z,13.49
2022-10-05T00:48:00.859Z,13.52
2022-10-05T00:49:00.852Z,13.54
2022-10-05T00:50:00.836Z,13.52
2022-10-05T00:51:00.827Z,13.49
2022-10-05T00:52:00.874Z,13.46
2022-10-05T00:53:00.806Z,13.51
2022-10-05T00:54:00.793Z,13.49
2022-10-05T00:55:00.800Z,13.46
2022-10-05T00:56:00.770Z,13.46
2022-10-05T00:57:00.776Z,13.46
2022-10-05T00:58:00.750Z,13.51
2022-10-05T00:59:00.756Z,13.52
2022-10-05T01:00:00.727Z,13.52
2022-10-05T01:01:00.837Z,13.47
2022-10-05T01:02:00.742Z,13.49
2022-10-05T01:03:00.696Z,13.49
2022-10-05T01:04:00.683Z,13.55
2022-10-05T01:05:00.675Z,13.47
2022-10-05T01:06:00.661Z,13.52
2022-10-05T01:07:00.661Z,13.46
2022-10-05T01:08:00.639Z,13.51
2022-10-05T01:09:00.630Z,13.43
2022-10-05T01:10:00.620Z,13.46
2022-10-05T01:11:00.615Z,13.51
2022-10-05T01:12:00.610Z,13.47
2022-10-05T01:13:00.587Z,13.47
2022-10-05T01:14:00.573Z,13.46
2022-10-05T01:15:00.581Z,13.49
2022-10-05T01:16:00.580Z,13.51
2022-10-05T01:17:00.630Z,13.51
2022-10-05T01:18:00.529Z,13.46
2022-10-05T01:19:00.523Z,13.46
2022-10-05T01:20:00.509Z,13.55
2022-10-05T01:21:00.500Z,13.51
2022-10-05T01:22:00.498Z,13.56
2022-10-05T01:23:00.495Z,13.49
2022-10-05T01:24:00.465Z,13.51
2022-10-05T01:25:00.456Z,13.46
2022-10-05T01:26:00.444Z,13.49
2022-10-05T01:27:00.447Z,13.46
2022-10-05T01:28:00.523Z,13.49
2022-10-05T01:29:00.425Z,13.52
2022-10-05T01:30:00.399Z,13.55
2022-10-05T01:31:00.407Z,13.52
2022-10-05T01:32:00.385Z,13.54
2022-10-05T01:33:00.368Z,13.43
2022-10-05T01:34:00.360Z,13.44
2022-10-05T01:35:00.355Z,13.56
2022-10-05T01:36:00.337Z,13.44
2022-10-05T01:37:00.440Z,13.52
2022-10-05T01:38:00.311Z,13.49
2022-10-05T01:39:00.302Z,13.55
2022-10-05T01:40:00.298Z,13.52
2022-10-05T01:41:00.281Z,13.44
2022-10-05T01:42:00.329Z,13.52
2022-10-05T01:43:00.259Z,13.44
2022-10-05T01:44:00.247Z,13.52
2022-10-05T01:45:00.239Z,13.46
2022-10-05T01:46:00.305Z,13.46
2022-10-05T01:47:00.425Z,13.49
2022-10-05T01:48:00.202Z,13.43
2022-10-05T01:49:00.197Z,13.47
2022-10-05T01:50:00.181Z,13.40
2022-10-05T01:51:00.173Z,13.38
2022-10-05T01:52:00.299Z,13.47
2022-10-05T01:53:00.147Z,13.41
2022-10-05T01:54:00.139Z,13.44
2022-10-05T01:55:00.129Z,13.37
2022-10-05T01:56:00.116Z,13.32
2022-10-05T01:57:00.118Z,13.33
2022-10-05T01:58:00.105Z,13.27
2022-10-05T01:59:00.110Z,13.33
2022-10-05T02:00:00.080Z,13.33
2022-10-05T02:01:00.201Z,13.21
2022-10-05T02:02:00.114Z,13.21
2022-10-05T02:03:00.058Z,13.25
2022-10-05T02:04:00.032Z,13.24
2022-10-05T02:05:02.598Z,13.24
2022-10-05T02:06:00.011Z,13.22
2022-10-05T02:07:00.007Z,13.21
2022-10-05T02:07:59.981Z,13.24
2022-10-05T02:08:59.974Z,13.18
2022-10-05T02:09:59.961Z,13.21
2022-10-05T02:10:59.952Z,13.18
2022-10-05T02:11:59.947Z,13.18
2022-10-05T02:12:59.932Z,13.32
2022-10-05T02:13:59.916Z,13.18
2022-10-05T02:14:59.907Z,13.21
2022-10-05T02:15:59.942Z,13.27
2022-10-05T02:16:59.904Z,13.24
2022-10-05T02:17:59.874Z,13.15
2022-10-05T02:18:59.879Z,13.12
2022-10-05T02:19:59.851Z,13.20
2022-10-05T02:20:59.842Z,13.21
2022-10-05T02:21:59.841Z,13.12
2022-10-05T02:22:59.823Z,13.15
2022-10-05T02:23:59.808Z,13.02
2022-10-05T02:24:59.796Z,13.03
2022-10-05T02:25:59.797Z,13.14
2022-10-05T02:26:59.785Z,13.20
2022-10-05T02:27:59.861Z,13.06
2022-10-05T02:28:59.754Z,13.21
2022-10-05T02:29:59.743Z,13.03
2022-10-05T02:30:59.734Z,13.06
2022-10-05T02:31:59.733Z,13.03
2022-10-05T02:32:59.710Z,13.07
2022-10-05T02:33:59.716Z,13.04
2022-10-05T02:34:59.707Z,13.03
2022-10-05T02:35:59.677Z,13.03
2022-10-05T02:36:59.681Z,13.03
2022-10-05T02:37:59.655Z,13.03
2022-10-05T02:38:59.644Z,13.07
2022-10-05T02:39:59.632Z,13.00
2022-10-05T02:40:59.626Z,13.02
2022-10-05T02:41:59.623Z,13.03
2022-10-05T02:42:59.601Z,13.07
2022-10-05T02:43:59.589Z,13.03
2022-10-05T02:44:59.579Z,13.07
2022-10-05T02:45:59.582Z,12.97
2022-10-05T02:46:59.575Z,13.03
2022-10-05T02:47:59.550Z,13.00
2022-10-05T02:48:59.537Z,12.96
2022-10-05T02:49:59.523Z,12.99
2022-10-05T02:50:59.533Z,12.95
2022-10-05T02:51:59.554Z,12.92
2022-10-05T02:52:59.530Z,12.88
2022-10-05T02:53:59.490Z,12.95
2022-10-05T02:54:59.470Z,12.89
2022-10-05T02:55:59.460Z,12.92
2022-10-05T02:56:59.465Z,12.88
2022-10-05T02:57:59.438Z,12.89
2022-10-05T02:58:59.428Z,12.89
2022-10-05T02:59:59.417Z,12.87
2022-10-05T03:00:59.445Z,12.92
2022-10-05T03:01:59.441Z,12.92
2022-10-05T03:02:59.384Z,12.95
2022-10-05T03:03:59.373Z,12.92
2022-10-05T03:04:59.362Z,12.93
2022-10-05T03:05:59.352Z,12.87
2022-10-05T03:06:59.376Z,12.89
2022-10-05T03:07:59.327Z,12.87
2022-10-05T03:08:59.320Z,12.92
2022-10-05T03:10:01.189Z,12.85
2022-10-05T03:10:59.297Z,12.81
2022-10-05T03:11:59.299Z,12.84
2022-10-05T03:12:59.277Z,12.82
2022-10-05T03:13:59.264Z,12.88
2022-10-05T03:14:59.259Z,12.82
2022-10-05T03:15:59.308Z,12.84
2022-10-05T03:16:59.244Z,12.85
2022-10-05T03:17:59.223Z,12.88
2022-10-05T03:18:59.211Z,12.87
2022-10-05T03:19:59.200Z,12.85
2022-10-05T03:20:59.191Z,12.85
2022-10-05T03:21:59.188Z,12.89
2022-10-05T03:22:59.184Z,12.88
2022-10-05T03:23:59.155Z,12.85
2022-10-05T03:24:59.146Z,12.85
2022-10-05T03:25:59.145Z,12.92
2022-10-05T03:26:59.137Z,12.88
2022-10-05T03:27:59.174Z,12.84
2022-10-05T03:28:59.102Z,12.85
2022-10-05T03:29:59.095Z,12.85
2022-10-05T03:30:59.170Z,12.85
2022-10-05T03:31:59.089Z,12.89
2022-10-05T03:32:59.056Z,12.87
2022-10-05T03:33:59.052Z,12.87
2022-10-05T03:34:59.036Z,12.87
2022-10-05T03:35:59.026Z,12.87
2022-10-05T03:36:59.024Z,12.88
2022-10-05T03:37:59.005Z,12.85
2022-10-05T03:38:59.011Z,12.82
2022-10-05T03:39:58.987Z,12.84
2022-10-05T03:40:58.971Z,12.81
2022-10-05T03:41:58.970Z,12.85
2022-10-05T03:42:58.947Z,12.82
2022-10-05T03:43:58.942Z,12.85
2022-10-05T03:44:58.926Z,12.88
2022-10-05T03:45:59.067Z,12.87
2022-10-05T03:46:58.918Z,12.84
2022-10-05T03:48:01.518Z,12.88
2022-10-05T03:48:58.882Z,12.79
2022-10-05T03:49:58.874Z,12.82
2022-10-05T03:50:58.865Z,12.81
2022-10-05T03:51:58.861Z,12.79
2022-10-05T03:52:58.841Z,12.81
2022-10-05T03:53:58.844Z,12.84
2022-10-05T03:54:58.937Z,12.85
2022-10-05T03:55:58.806Z,12.81
2022-10-05T03:56:58.804Z,12.87
2022-10-05T03:57:58.786Z,12.88
2022-10-05T03:58:58.772Z,12.88
2022-10-05T03:59:58.763Z,12.92
2022-10-05T04:00:58.752Z,12.84
2022-10-05T04:01:58.847Z,12.89
2022-10-05T04:02:58.778Z,12.82
2022-10-05T04:03:58.718Z,12.82
2022-10-05T04:04:58.708Z,12.82
2022-10-05T04:05:58.698Z,12.89
2022-10-05T04:06:58.701Z,12.87
2022-10-05T04:07:58.677Z,12.84
2022-10-05T04:08:58.664Z,12.87
2022-10-05T04:09:58.669Z,12.89
2022-10-05T04:10:58.658Z,12.87
2022-10-05T04:11:58.643Z,12.85
2022-10-05T04:12:58.622Z,12.81
2022-10-05T04:13:58.647Z,12.82
2022-10-05T04:14:58.600Z,12.82
2022-10-05T04:15:58.670Z,12.82
2022-10-05T04:16:58.588Z,12.82
2022-10-05T04:17:58.568Z,12.84
2022-10-05T04:18:58.555Z,12.82
2022-10-05T04:19:58.548Z,12.85
2022-10-05T04:20:58.537Z,12.85
2022-10-05T04:21:58.541Z,12.89
2022-10-05T04:22:58.510Z,12.85
2022-10-05T04:23:58.504Z,12.85
2022-10-05T04:24:58.489Z,12.87
2022-10-05T04:25:58.479Z,12.87
2022-10-05T04:26:58.491Z,12.92
2022-10-05T04:27:58.532Z,12.87
2022-10-05T04:28:58.446Z,12.89
2022-10-05T04:29:58.436Z,12.88
2022-10-05T04:30:58.463Z,12.85
2022-10-05T04:31:58.424Z,12.84
2022-10-05T04:32:58.405Z,12.84
2022-10-05T04:33:58.392Z,12.87
2022-10-05T04:34:58.382Z,12.84
2022-10-05T04:35:58.391Z,12.82
2022-10-05T04:36:58.367Z,12.84
2022-10-05T04:37:58.348Z,12.84
2022-10-05T04:38:58.344Z,12.81
2022-10-05T04:39:58.326Z,12.79
2022-10-05T04:40:58.314Z,12.78
2022-10-05T04:41:58.322Z,12.81
2022-10-05T04:42:58.309Z,12.74
2022-10-05T04:43:58.284Z,12.82
2022-10-05T04:44:59.353Z,12.74
2022-10-05T04:45:58.261Z,12.79
2022-10-05T04:46:58.338Z,12.79
2022-10-05T04:47:58.239Z,12.71
2022-10-05T04:48:58.228Z,12.79
2022-10-05T04:49:58.218Z,12.77
2022-10-05T04:50:58.206Z,12.74
2022-10-05T04:51:58.214Z,12.69
2022-10-05T04:52:58.181Z,12.75
2022-10-05T04:53:58.176Z,12.82
2022-10-05T04:54:58.161Z,12.81
2022-10-05T04:55:58.151Z,12.82
2022-10-05T04:56:58.147Z,12.78
2022-10-05T04:57:58.130Z,12.75
2022-10-05T04:58:58.205Z,12.79
2022-10-05T04:59:58.107Z,12.79
2022-10-05T05:00:58.128Z,12.82
2022-10-05T05:01:58.098Z,12.79
2022-10-05T05:02:58.074Z,12.87
2022-10-05T05:03:58.130Z,12.82
2022-10-05T05:04:58.051Z,12.79
2022-10-05T05:06:16.496Z,12.77
2022-10-05T05:06:59.043Z,12.79
2022-10-05T05:07:58.027Z,12.84
2022-10-05T05:08:58.011Z,12.81
2022-10-05T05:09:57.998Z,12.78
2022-10-05T05:10:58.017Z,12.79
2022-10-05T05:11:57.990Z,12.79
2022-10-05T05:12:57.964Z,12.67
2022-10-05T05:13:57.954Z,12.79
2022-10-05T05:14:57.959Z,12.82
2022-10-05T05:15:57.990Z,12.77
2022-10-05T05:16:57.932Z,12.81
2022-10-05T05:17:57.912Z,12.81
2022-10-05T05:18:57.901Z,12.78
2022-10-05T05:19:57.902Z,12.78
2022-10-05T05:20:57.936Z,12.82
2022-10-05T05:21:57.878Z,12.84
2022-10-05T05:22:57.855Z,12.81
2022-10-05T05:23:57.846Z,12.87
2022-10-05T05:24:57.833Z,12.82
2022-10-05T05:25:57.822Z,12.89
2022-10-05T05:26:57.823Z,12.87
2022-10-05T05:27:57.865Z,12.95
2022-10-05T05:28:57.792Z,12.95
2022-10-05T05:29:57.783Z,12.93
2022-10-05T05:30:57.857Z,13.07
2022-10-05T05:31:57.781Z,12.99
2022-10-05T05:32:57.745Z,13.09
2022-10-05T05:33:57.743Z,13.00
2022-10-05T05:34:57.724Z,13.04
2022-10-05T05:35:57.717Z,13.09
2022-10-05T05:36:57.713Z,13.20
2022-10-05T05:37:57.704Z,13.17
2022-10-05T05:38:57.683Z,13.12
2022-10-05T05:39:57.672Z,13.17
2022-10-05T05:40:57.659Z,13.07
2022-10-05T05:41:57.666Z,13.06
2022-10-05T05:42:57.637Z,13.00
2022-10-05T05:43:57.627Z,13.03
2022-10-05T05:44:57.616Z,13.06
2022-10-05T05:45:57.605Z,13.03
2022-10-05T05:47:05.536Z,13.03
2022-10-05T05:47:58.580Z,13.04
2022-10-05T05:48:57.569Z,13.11
2022-10-05T05:49:57.562Z,13.04
2022-10-05T05:50:57.586Z,13.00
2022-10-05T05:51:57.568Z,12.89
2022-10-05T05:52:57.526Z,12.93
2022-10-05T05:53:57.518Z,12.92
2022-10-05T05:54:57.505Z,12.88
2022-10-05T05:55:57.495Z,12.85
2022-10-05T05:56:57.500Z,12.81
2022-10-05T05:57:57.474Z,12.82
2022-10-05T05:58:57.461Z,12.79
2022-10-05T05:59:57.457Z,12.87
2022-10-05T06:00:57.439Z,12.88
2022-10-05T06:01:57.544Z,12.92
2022-10-05T06:03:49.424Z,13.00
2022-10-05T06:04:49.402Z,13.04
2022-10-05T06:05:49.385Z,13.02
2022-10-05T06:06:49.793Z,13.14
2022-10-05T06:07:49.361Z,13.17
2022-10-05T06:08:49.357Z,13.14
2022-10-05T06:09:50.004Z,13.17
2022-10-05T06:10:49.350Z,13.24
2022-10-05T06:11:49.340Z,13.30
2022-10-05T06:12:49.305Z,13.25
2022-10-05T06:13:49.299Z,13.38
2022-10-05T06:14:49.314Z,13.38
2022-10-05T06:15:49.281Z,13.40
2022-10-05T06:16:49.830Z,13.52
2022-10-05T06:18:40.494Z,13.52
2022-10-05T06:19:40.538Z,13.54
2022-10-05T06:20:40.472Z,13.56
2022-10-05T06:21:40.457Z,13.55
2022-10-05T06:22:40.468Z,13.67
2022-10-05T06:23:40.436Z,13.63
2022-10-05T06:24:40.427Z,13.67
2022-10-05T06:25:40.414Z,13.61
2022-10-05T06:26:40.404Z,13.63
2022-10-05T06:27:40.403Z,13.67
2022-10-05T06:28:40.420Z,13.76
2022-10-05T06:29:40.370Z,13.61
2022-10-05T06:30:40.367Z,13.59
2022-10-05T06:31:40.575Z,13.56
2022-10-05T06:32:40.349Z,13.63
2022-10-05T06:33:40.330Z,13.70
2022-10-05T06:34:40.316Z,13.81
2022-10-05T06:35:40.367Z,13.76
2022-10-05T06:36:40.296Z,13.77
2022-10-05T06:37:40.295Z,13.79
2022-10-05T06:38:40.276Z,13.77
2022-10-05T06:39:40.260Z,13.89
2022-10-05T06:40:40.252Z,13.99
2022-10-05T06:41:40.238Z,13.95
2022-10-05T06:42:40.246Z,14.02
2022-10-05T06:43:40.227Z,14.02
2022-10-05T06:44:40.208Z,14.07
2022-10-05T06:45:40.303Z,14.07
2022-10-05T06:46:40.183Z,14.19
2022-10-05T06:47:40.188Z,14.20
2022-10-05T06:48:40.162Z,14.25
2022-10-05T06:49:40.152Z,14.31
2022-10-05T06:50:40.142Z,14.38
2022-10-05T06:51:40.145Z,14.35
2022-10-05T06:52:40.134Z,14.31
2022-10-05T06:53:40.108Z,14.27
2022-10-05T06:54:40.097Z,14.37
2022-10-05T06:55:40.084Z,14.31
2022-10-05T06:56:40.075Z,14.38
2022-10-05T06:57:40.081Z,14.34
2022-10-05T06:58:47.610Z,14.47
2022-10-05T06:59:40.040Z,14.43
2022-10-05T07:00:40.031Z,14.50
2022-10-05T07:01:40.126Z,14.57
2022-10-05T07:02:40.135Z,14.68
2022-10-05T07:03:40.001Z,14.60
2022-10-05T07:04:39.987Z,14.67
2022-10-05T07:05:39.983Z,14.75
2022-10-05T07:06:39.976Z,14.72
2022-10-05T07:07:40.008Z,14.81
2022-10-05T07:08:39.945Z,14.74
2022-10-05T07:09:39.931Z,14.78
2022-10-05T07:10:39.929Z,14.78
2022-10-05T07:11:39.916Z,14.91
2022-10-05T07:12:46.952Z,14.83
2022-10-05T07:13:39.887Z,14.95
2022-10-05T07:14:39.879Z,14.93
2022-10-05T07:15:39.864Z,15.11
2022-10-05T07:16:39.954Z,15.24
2022-10-05T07:17:39.858Z,15.43
2022-10-05T07:18:39.851Z,15.51
2022-10-05T07:19:39.820Z,15.51
2022-10-05T07:20:39.813Z,15.60
2022-10-05T07:21:39.801Z,15.57
2022-10-05T07:22:39.804Z,15.56
2022-10-05T07:23:39.800Z,15.60
2022-10-05T07:24:39.766Z,15.61
2022-10-05T07:25:39.758Z,15.51
2022-10-05T07:26:39.765Z,15.54
2022-10-05T07:27:39.734Z,15.57
2022-10-05T07:28:47.669Z,15.61
2022-10-05T07:29:39.714Z,15.54
2022-10-05T07:30:39.756Z,15.60
2022-10-05T07:31:39.734Z,15.59
2022-10-05T07:32:39.724Z,15.60
2022-10-05T07:33:39.683Z,15.60
2022-10-05T07:34:39.687Z,15.61
2022-10-05T07:35:39.665Z,15.66
2022-10-05T07:36:39.691Z,15.93
2022-10-05T07:37:39.657Z,15.94
2022-10-05T07:38:39.627Z,16.06
2022-10-05T07:39:59.797Z,16.20
2022-10-05T07:40:40.629Z,16.33
2022-10-05T07:42:52.277Z,16.33
2022-10-05T07:44:02.060Z,16.34
2022-10-05T07:44:51.476Z,16.38
2022-10-05T07:45:50.532Z,16.53
2022-10-05T07:46:50.992Z,16.60
2022-10-05T07:47:50.436Z,16.73
2022-10-05T07:48:50.427Z,16.88
2022-10-05T07:49:50.416Z,16.99
2022-10-05T07:50:50.409Z,16.93
2022-10-05T07:51:50.434Z,16.98
2022-10-05T07:52:50.382Z,16.90
2022-10-05T07:53:50.374Z,16.90
2022-10-05T07:54:50.379Z,16.81
2022-10-05T07:55:50.351Z,16.74
2022-10-05T07:56:50.828Z,16.65
2022-10-05T07:57:50.349Z,16.60
2022-10-05T07:58:50.339Z,16.58
2022-10-05T07:59:50.334Z,16.59
2022-10-05T08:00:50.304Z,16.59
2022-10-05T08:01:50.379Z,16.62
2022-10-05T08:02:50.347Z,16.59
2022-10-05T08:03:50.265Z,16.62
2022-10-05T08:04:50.256Z,16.70
2022-10-05T08:05:50.249Z,16.73
2022-10-05T08:06:50.798Z,16.81
2022-10-05T08:07:50.225Z,16.89
2022-10-05T08:08:50.213Z,16.98
2022-10-05T08:09:50.200Z,16.99
2022-10-05T08:10:50.208Z,16.99
2022-10-05T08:11:50.190Z,16.96
2022-10-05T08:12:50.167Z,16.99
2022-10-05T08:13:50.159Z,16.96
2022-10-05T08:14:50.151Z,17.04
2022-10-05T08:15:50.189Z,17.10
2022-10-05T08:16:50.125Z,16.99
2022-10-05T08:17:50.123Z,17.03
2022-10-05T08:18:50.119Z,17.00
2022-10-05T08:19:50.092Z,17.00
2022-10-05T08:20:50.082Z,17.04
2022-10-05T08:21:50.464Z,17.08
2022-10-05T08:22:50.072Z,16.98
2022-10-05T08:23:50.049Z,16.95
2022-10-05T08:24:50.039Z,16.93
2022-10-05T08:25:50.027Z,17.07
2022-10-05T08:26:50.034Z,17.11
2022-10-05T08:27:50.017Z,17.23
2022-10-05T08:28:49.995Z,17.29
2022-10-05T08:29:49.989Z,17.26
2022-10-05T08:30:50.008Z,17.28
2022-10-05T08:31:50.468Z,17.26
2022-10-05T08:32:49.961Z,17.29
2022-10-05T08:33:49.940Z,17.41
2022-10-05T08:34:49.934Z,17.40
2022-10-05T08:35:49.920Z,17.59
2022-10-05T08:36:53.700Z,17.63
2022-10-05T08:37:49.911Z,17.73
2022-10-05T08:38:49.889Z,17.82
2022-10-05T08:39:49.876Z,17.81
2022-10-05T08:40:49.867Z,17.84
2022-10-05T08:41:50.046Z,17.92
2022-10-05T08:42:49.944Z,17.88
2022-10-05T08:43:49.836Z,17.88
2022-10-05T08:44:49.824Z,18.00
2022-10-05T08:45:49.872Z,17.95
2022-10-05T08:46:49.804Z,18.03
2022-10-05T08:47:49.806Z,17.99
2022-10-05T08:48:49.785Z,18.10
2022-10-05T08:49:49.771Z,18.06
2022-10-05T08:50:49.767Z,17.92
2022-10-05T08:51:50.061Z,17.91
2022-10-05T08:52:49.770Z,17.91
2022-10-05T08:53:49.731Z,17.89
2022-10-05T08:54:49.719Z,17.89
2022-10-05T08:55:49.709Z,17.84
2022-10-05T08:56:49.702Z,17.88
2022-10-05T08:57:49.697Z,17.92
2022-10-05T08:58:49.735Z,18.10
2022-10-05T08:59:49.665Z,18.15
2022-10-05T09:00:49.662Z,18.12
2022-10-05T09:01:50.180Z,18.27
2022-10-05T09:02:49.784Z,18.27
2022-10-05T09:03:49.623Z,18.29
2022-10-05T09:04:49.616Z,18.29
2022-10-05T09:05:49.601Z,18.24
2022-10-05T09:06:49.610Z,18.39
2022-10-05T09:07:49.594Z,18.50
2022-10-05T09:08:49.571Z,18.52
2022-10-05T09:09:49.560Z,18.58
2022-10-05T09:10:49.550Z,18.52
2022-10-05T09:11:49.832Z,18.49
2022-10-05T09:12:49.543Z,18.33
2022-10-05T09:13:49.517Z,18.28
2022-10-05T09:15:01.585Z,18.27
2022-10-05T09:15:50.537Z,18.12
2022-10-05T09:16:49.495Z,18.06
2022-10-05T09:17:49.494Z,17.92
2022-10-05T09:18:49.469Z,17.85
2022-10-05T09:19:49.464Z,17.73
2022-10-05T09:20:49.447Z,17.66
2022-10-05T09:21:49.785Z,17.63
2022-10-05T09:22:49.421Z,17.64
2022-10-05T09:23:49.413Z,17.57
2022-10-05T09:24:49.400Z,17.62
2022-10-05T09:25:49.389Z,17.66
2022-10-05T09:26:49.389Z,17.67
2022-10-05T09:27:49.365Z,17.73
2022-10-05T09:28:49.361Z,17.69
2022-10-05T09:29:49.352Z,17.79
2022-10-05T09:30:49.431Z,17.88
2022-10-05T09:31:49.575Z,17.79
2022-10-05T09:32:49.316Z,17.55
2022-10-05T09:33:49.303Z,17.59
2022-10-05T09:34:49.295Z,17.66
2022-10-05T09:35:49.283Z,17.59
2022-10-05T09:36:49.274Z,17.62
2022-10-05T09:37:49.274Z,17.62
2022-10-05T09:38:49.252Z,17.64
2022-10-05T09:39:49.280Z,17.59
2022-10-05T09:40:49.233Z,17.67
2022-10-05T09:41:49.669Z,17.66
2022-10-05T09:42:49.245Z,17.67
2022-10-05T09:43:49.198Z,17.59
2022-10-05T09:44:49.190Z,17.55
2022-10-05T09:45:49.177Z,17.55
2022-10-05T09:46:49.206Z,17.57
2022-10-05T09:47:49.156Z,17.57
2022-10-05T09:48:49.148Z,17.73
2022-10-05T09:49:49.137Z,17.66
2022-10-05T09:50:49.130Z,17.64
2022-10-05T09:51:49.591Z,17.57
2022-10-05T09:52:49.106Z,17.66
2022-10-05T09:53:49.098Z,17.78
2022-10-05T09:54:49.088Z,17.84
2022-10-05T09:55:49.072Z,17.95
2022-10-05T09:56:49.415Z,18.10
2022-10-05T09:57:52.334Z,18.18
2022-10-05T09:58:49.045Z,18.21
2022-10-05T09:59:49.037Z,18.29
2022-10-05T10:00:55.618Z,18.37
2022-10-05T10:01:50.364Z,18.37
2022-10-05T10:02:49.181Z,18.44
2022-10-05T10:03:48.990Z,18.68
2022-10-05T10:04:48.979Z,18.61
2022-10-05T10:05:48.965Z,18.67
2022-10-05T10:06:49.006Z,18.52
2022-10-05T10:07:48.946Z,18.59
2022-10-05T10:08:48.936Z,18.58
2022-10-05T10:09:48.982Z,18.58
2022-10-05T10:10:48.918Z,18.55
2022-10-05T10:11:49.308Z,18.72
2022-10-05T10:12:48.892Z,18.68
2022-10-05T10:13:48.879Z,18.80
2022-10-05T10:14:48.869Z,18.84
2022-10-05T10:15:48.930Z,18.87
2022-10-05T10:16:48.860Z,18.87
2022-10-05T10:17:48.833Z,18.84
2022-10-05T10:18:48.841Z,18.80
2022-10-05T10:19:48.811Z,18.79
2022-10-05T10:20:48.809Z,18.83
2022-10-05T10:21:49.403Z,18.94
2022-10-05T10:22:48.780Z,18.84
2022-10-05T10:23:48.772Z,18.90
2022-10-05T10:24:48.781Z,18.86
2022-10-05T10:25:48.770Z,18.87
2022-10-05T10:26:48.756Z,18.72
2022-10-05T10:27:52.348Z,18.73
2022-10-05T10:28:48.714Z,18.74
2022-10-05T10:29:48.703Z,18.76
2022-10-05T10:30:48.748Z,18.72
2022-10-05T10:31:49.256Z,18.65
2022-10-05T10:32:48.679Z,18.64
2022-10-05T10:33:48.659Z,18.52
2022-10-05T10:34:48.667Z,18.58
2022-10-05T10:35:48.638Z,18.59
2022-10-05T10:36:48.858Z,18.55
2022-10-05T10:37:48.619Z,18.54
2022-10-05T10:38:48.623Z,18.54
2022-10-05T10:39:48.596Z,18.52
2022-10-05T10:40:48.587Z,18.47
2022-10-05T10:41:48.588Z,18.43
2022-10-05T10:42:48.576Z,18.37
2022-10-05T10:43:48.552Z,18.42
2022-10-05T10:44:48.544Z,18.34
2022-10-05T10:45:48.531Z,18.47
2022-10-05T10:46:48.911Z,18.43
2022-10-05T10:47:48.511Z,18.54
2022-10-05T10:48:48.501Z,18.54
2022-10-05T10:49:48.492Z,18.55
2022-10-05T10:50:48.505Z,18.57
2022-10-05T10:51:48.478Z,18.59
2022-10-05T10:52:48.460Z,18.58
2022-10-05T10:53:48.473Z,18.67
2022-10-05T10:54:48.450Z,18.72
2022-10-05T10:55:48.428Z,18.72
2022-10-05T10:56:48.775Z,18.74
2022-10-05T10:57:48.418Z,18.72
2022-10-05T10:58:48.397Z,18.74
2022-10-05T10:59:48.390Z,18.73
2022-10-05T11:00:48.393Z,18.73
2022-10-05T11:01:48.729Z,18.72
2022-10-05T11:02:48.431Z,18.72
2022-10-05T11:03:48.343Z,18.67
2022-10-05T11:04:48.343Z,18.64
2022-10-05T11:05:48.902Z,18.58
2022-10-05T11:06:48.354Z,18.72
2022-10-05T11:07:48.302Z,18.72
2022-10-05T11:08:48.351Z,18.70
2022-10-05T11:09:48.280Z,18.68
2022-10-05T11:10:48.273Z,18.74
2022-10-05T11:11:48.585Z,18.84
2022-10-05T11:12:48.270Z,18.83
2022-10-05T11:13:48.242Z,18.90
2022-10-05T11:14:48.239Z,18.95
2022-10-05T11:15:48.337Z,18.87
2022-10-05T11:16:48.503Z,18.87
2022-10-05T11:17:48.196Z,18.84
2022-10-05T11:18:48.194Z,18.86
2022-10-05T11:20:04.731Z,18.82
2022-10-05T11:20:49.163Z,18.84
2022-10-05T11:21:48.184Z,18.82
2022-10-05T11:22:48.179Z,18.84
2022-10-05T11:23:48.138Z,18.84
2022-10-05T11:24:48.145Z,18.87
2022-10-05T11:25:48.131Z,18.72
2022-10-05T11:26:48.429Z,18.65
2022-10-05T11:27:48.095Z,18.73
2022-10-05T11:28:48.093Z,18.86
2022-10-05T11:29:48.075Z,18.68
2022-10-05T11:30:50.470Z,18.70
2022-10-05T11:31:48.378Z,18.73
2022-10-05T11:32:48.044Z,18.74
2022-10-05T11:33:48.032Z,18.83
2022-10-05T11:34:48.018Z,18.87
2022-10-05T11:35:48.020Z,18.84
2022-10-05T11:36:48.046Z,18.82
2022-10-05T11:37:47.987Z,18.83
2022-10-05T11:38:47.993Z,18.80
2022-10-05T11:39:47.971Z,19.01
2022-10-05T11:40:47.961Z,18.95
2022-10-05T11:41:48.199Z,19.10
2022-10-05T11:42:47.961Z,19.11
2022-10-05T11:43:47.940Z,19.06
2022-10-05T11:44:47.925Z,18.99
2022-10-05T11:45:47.909Z,18.97
2022-10-05T11:46:47.976Z,18.99
2022-10-05T11:47:47.890Z,18.91
2022-10-05T11:48:47.875Z,18.97
2022-10-05T11:49:47.862Z,18.95
2022-10-05T11:50:47.853Z,18.95
2022-10-05T11:51:48.123Z,19.01
2022-10-05T11:52:47.837Z,19.06
2022-10-05T11:53:47.900Z,18.97
2022-10-05T11:55:12.537Z,18.92
2022-10-05T11:55:48.803Z,18.87
2022-10-05T11:56:50.762Z,18.76
2022-10-05T11:57:48.776Z,18.84
2022-10-05T11:58:47.767Z,18.87
2022-10-05T11:59:47.759Z,18.86
2022-10-05T12:00:47.747Z,18.87
2022-10-05T12:01:47.745Z,18.84
2022-10-05T12:02:47.892Z,18.83
2022-10-05T12:03:47.801Z,18.91
2022-10-05T12:04:47.720Z,18.92
2022-10-05T12:05:47.710Z,18.98
2022-10-05T12:06:47.976Z,18.95
2022-10-05T12:07:47.669Z,19.01
2022-10-05T12:08:47.659Z,19.02
2022-10-05T12:09:47.649Z,19.02
2022-10-05T12:10:47.688Z,19.11
2022-10-05T12:11:47.638Z,19.21
2022-10-05T12:12:47.615Z,19.17
2022-10-05T12:13:47.608Z,19.31
2022-10-05T12:14:47.596Z,19.23
2022-10-05T12:15:47.652Z,19.33
2022-10-05T12:16:47.595Z,19.51
2022-10-05T12:17:47.585Z,19.57
2022-10-05T12:18:47.552Z,19.54
2022-10-05T12:19:47.568Z,19.51
2022-10-05T12:20:47.533Z,19.51
2022-10-05T12:21:47.532Z,19.55
2022-10-05T12:22:47.510Z,19.48
2022-10-05T12:23:47.501Z,19.53
2022-10-05T12:24:47.493Z,19.51
2022-10-05T12:25:47.488Z,19.40
2022-10-05T12:26:47.500Z,19.55
2022-10-05T12:27:47.515Z,19.53
2022-10-05T12:28:47.445Z,19.46
2022-10-05T12:29:47.454Z,19.47
2022-10-05T12:30:47.425Z,19.46
2022-10-05T12:31:47.483Z,19.58
2022-10-05T12:32:47.404Z,19.54
2022-10-05T12:33:47.399Z,19.55
2022-10-05T12:34:47.383Z,19.57
2022-10-05T12:35:48.930Z,19.60
2022-10-05T12:37:03.446Z,19.68
2022-10-05T12:37:48.351Z,19.65
2022-10-05T12:38:47.341Z,19.72
2022-10-05T12:39:47.330Z,19.72
2022-10-05T12:40:47.319Z,19.75
2022-10-05T12:41:47.320Z,19.68
2022-10-05T12:42:47.317Z,19.54
2022-10-05T12:43:47.293Z,19.57
2022-10-05T12:44:47.277Z,19.53
2022-10-05T12:45:47.320Z,19.53
2022-10-05T12:46:47.261Z,19.57
2022-10-05T12:47:51.518Z,19.50
2022-10-05T12:48:48.233Z,19.48
2022-10-05T12:49:47.229Z,19.50
2022-10-05T12:50:47.260Z,19.39
2022-10-05T12:51:47.239Z,19.38
2022-10-05T12:52:47.202Z,19.51
2022-10-05T12:53:47.190Z,19.51
2022-10-05T12:54:47.170Z,19.51